sensor_id;sensor_type;location;lat;lon;timestamp;temperature;humidity
39815;DHT22;25495;45.948;4.568;2022-09-09T00:04:34;17.70;99.90
39815;DHT22;25495;45.948;4.568;2022-09-09T00:09:34;17.50;99.90
39815;DHT22;25495;45.948;4.568;2022-09-09T00:17:32;17.60;99.90
39815;DHT22;25495;45.948;4.568;2022-09-09T00:20:14;17.50;99.90
39815;DHT22;25495;45.948;4.568;2022-09-09T00:23:24;17.60;99.90
39815;DHT22;25495;45.948;4.568;2022-09-09T00:25:58;17.40;99.90
39815;DHT22;25495;45.948;4.568;2022-09-09T00:28:27;17.30;99.90
39815;DHT22;25495;45.948;4.568;2022-09-09T00:31:14;17.20;99.90
39815;DHT22;25495;45.948;4.568;2022-09-09T00:33:43;17.10;99.90
39815;DHT22;25495;45.948;4.568;2022-09-09T00:36:14;17.10;99.90
39815;DHT22;25495;45.948;4.568;2022-09-09T00:38:49;17.00;99.90
39815;DHT22;25495;45.948;4.568;2022-09-09T00:54:48;16.80;99.90
39815;DHT22;25495;45.948;4.568;2022-09-09T00:57:25;16.80;99.90
39815;DHT22;25495;45.948;4.568;2022-09-09T01:00:31;16.80;99.90
39815;DHT22;25495;45.948;4.568;2022-09-09T01:10:59;16.70;99.90
39815;DHT22;25495;45.948;4.568;2022-09-09T01:13:29;16.60;99.90
39815;DHT22;25495;45.948;4.568;2022-09-09T01:16:01;16.60;99.90
39815;DHT22;25495;45.948;4.568;2022-09-09T01:18:40;16.70;99.90
39815;DHT22;25495;45.948;4.568;2022-09-09T01:21:21;16.70;99.90
39815;DHT22;25495;45.948;4.568;2022-09-09T01:27:08;16.70;99.90
39815;DHT22;25495;45.948;4.568;2022-09-09T01:29:36;16.60;99.90
39815;DHT22;25495;45.948;4.568;2022-09-09T01:32:39;16.60;99.90
39815;DHT22;25495;45.948;4.568;2022-09-09T01:35:09;16.60;99.90
39815;DHT22;25495;45.948;4.568;2022-09-09T01:37:35;16.60;99.90
39815;DHT22;25495;45.948;4.568;2022-09-09T01:40:01;16.40;99.90
39815;DHT22;25495;45.948;4.568;2022-09-09T01:42:27;16.40;99.90
39815;DHT22;25495;45.948;4.568;2022-09-09T01:44:53;16.40;99.90
39815;DHT22;25495;45.948;4.568;2022-09-09T01:47:19;16.50;99.90
39815;DHT22;25495;45.948;4.568;2022-09-09T01:49:45;16.60;99.90
39815;DHT22;25495;45.948;4.568;2022-09-09T01:52:11;16.60;99.90
39815;DHT22;25495;45.948;4.568;2022-09-09T01:54:37;16.50;99.90
39815;DHT22;25495;45.948;4.568;2022-09-09T01:57:17;16.50;99.90
39815;DHT22;25495;45.948;4.568;2022-09-09T02:00:08;16.60;99.90
39815;DHT22;25495;45.948;4.568;2022-09-09T02:08:46;16.60;99.90
39815;DHT22;25495;45.948;4.568;2022-09-09T02:11:15;16.60;99.90
39815;DHT22;25495;45.948;4.568;2022-09-09T02:13:43;16.60;99.90
39815;DHT22;25495;45.948;4.568;2022-09-09T02:16:32;16.50;99.90
39815;DHT22;25495;45.948;4.568;2022-09-09T02:19:23;16.50;99.90
39815;DHT22;25495;45.948;4.568;2022-09-09T02:21:56;16.50;99.90
39815;DHT22;25495;45.948;4.568;2022-09-09T02:24:23;16.50;99.90
39815;DHT22;25495;45.948;4.568;2022-09-09T02:26:52;16.50;99.90
39815;DHT22;25495;45.948;4.568;2022-09-09T02:29:27;16.50;99.90
39815;DHT22;25495;45.948;4.568;2022-09-09T02:31:57;16.60;99.90
39815;DHT22;25495;45.948;4.568;2022-09-09T02:34:23;16.50;99.90
39815;DHT22;25495;45.948;4.568;2022-09-09T02:36:53;16.50;99.90
39815;DHT22;25495;45.948;4.568;2022-09-09T02:39:20;16.50;99.90
39815;DHT22;25495;45.948;4.568;2022-09-09T02:41:46;16.50;99.90
39815;DHT22;25495;45.948;4.568;2022-09-09T02:44:15;16.50;99.90
39815;DHT22;25495;45.948;4.568;2022-09-09T02:49:40;16.40;99.90
39815;DHT22;25495;45.948;4.568;2022-09-09T02:52:15;16.40;99.90
39815;DHT22;25495;45.948;4.568;2022-09-09T02:54:43;16.40;99.90
39815;DHT22;25495;45.948;4.568;2022-09-09T02:57:26;16.40;99.90
39815;DHT22;25495;45.948;4.568;2022-09-09T02:59:55;16.40;99.90
39815;DHT22;25495;45.948;4.568;2022-09-09T03:02:22;16.20;99.90
39815;DHT22;25495;45.948;4.568;2022-09-09T03:04:48;16.20;99.90
39815;DHT22;25495;45.948;4.568;2022-09-09T03:07:20;16.20;99.90
39815;DHT22;25495;45.948;4.568;2022-09-09T03:09:46;16.20;99.90
39815;DHT22;25495;45.948;4.568;2022-09-09T03:12:12;16.10;99.90
39815;DHT22;25495;45.948;4.568;2022-09-09T03:14:38;16.10;99.90
39815;DHT22;25495;45.948;4.568;2022-09-09T03:17:05;16.00;99.90
39815;DHT22;25495;45.948;4.568;2022-09-09T03:19:32;16.00;99.90
39815;DHT22;25495;45.948;4.568;2022-09-09T03:21:58;15.90;99.90
39815;DHT22;25495;45.948;4.568;2022-09-09T03:24:26;16.00;99.90
39815;DHT22;25495;45.948;4.568;2022-09-09T03:26:52;15.90;99.90
39815;DHT22;25495;45.948;4.568;2022-09-09T03:29:18;16.00;99.90
39815;DHT22;25495;45.948;4.568;2022-09-09T03:31:44;15.90;99.90
39815;DHT22;25495;45.948;4.568;2022-09-09T03:34:11;15.80;99.90
39815;DHT22;25495;45.948;4.568;2022-09-09T03:36:37;15.80;99.90
39815;DHT22;25495;45.948;4.568;2022-09-09T03:39:03;15.80;99.90
39815;DHT22;25495;45.948;4.568;2022-09-09T03:41:29;15.70;99.90
39815;DHT22;25495;45.948;4.568;2022-09-09T03:43:55;15.70;99.90
39815;DHT22;25495;45.948;4.568;2022-09-09T03:46:24;15.60;99.90
39815;DHT22;25495;45.948;4.568;2022-09-09T03:48:50;15.60;99.90
39815;DHT22;25495;45.948;4.568;2022-09-09T03:51:17;15.60;99.90
39815;DHT22;25495;45.948;4.568;2022-09-09T03:53:44;15.40;99.90
39815;DHT22;25495;45.948;4.568;2022-09-09T03:56:10;15.30;99.90
39815;DHT22;25495;45.948;4.568;2022-09-09T03:58:37;15.30;99.90
39815;DHT22;25495;45.948;4.568;2022-09-09T04:01:05;15.40;99.90
39815;DHT22;25495;45.948;4.568;2022-09-09T04:03:32;15.20;99.90
39815;DHT22;25495;45.948;4.568;2022-09-09T04:05:59;15.20;99.90
39815;DHT22;25495;45.948;4.568;2022-09-09T04:08:25;15.30;99.90
39815;DHT22;25495;45.948;4.568;2022-09-09T04:10:52;15.20;99.90
39815;DHT22;25495;45.948;4.568;2022-09-09T04:13:18;15.10;99.90
39815;DHT22;25495;45.948;4.568;2022-09-09T04:15:51;15.00;99.90
39815;DHT22;25495;45.948;4.568;2022-09-09T04:18:17;14.90;99.90
39815;DHT22;25495;45.948;4.568;2022-09-09T04:20:42;14.90;99.90
39815;DHT22;25495;45.948;4.568;2022-09-09T04:23:09;14.90;99.90
39815;DHT22;25495;45.948;4.568;2022-09-09T04:25:35;14.70;99.90
39815;DHT22;25495;45.948;4.568;2022-09-09T04:28:00;14.70;99.90
39815;DHT22;25495;45.948;4.568;2022-09-09T04:30:28;14.80;99.90
39815;DHT22;25495;45.948;4.568;2022-09-09T04:32:53;14.70;99.90
39815;DHT22;25495;45.948;4.568;2022-09-09T04:35:19;14.80;99.90
39815;DHT22;25495;45.948;4.568;2022-09-09T04:37:46;14.80;99.90
39815;DHT22;25495;45.948;4.568;2022-09-09T04:40:11;14.80;99.90
39815;DHT22;25495;45.948;4.568;2022-09-09T04:42:38;14.80;99.90
39815;DHT22;25495;45.948;4.568;2022-09-09T04:45:06;14.90;99.90
39815;DHT22;25495;45.948;4.568;2022-09-09T04:47:32;14.80;99.90
39815;DHT22;25495;45.948;4.568;2022-09-09T04:50:00;14.90;99.90
39815;DHT22;25495;45.948;4.568;2022-09-09T04:52:26;14.90;99.90
39815;DHT22;25495;45.948;4.568;2022-09-09T04:54:52;14.90;99.90
39815;DHT22;25495;45.948;4.568;2022-09-09T04:57:19;15.00;99.90
39815;DHT22;25495;45.948;4.568;2022-09-09T04:59:45;14.90;99.90
39815;DHT22;25495;45.948;4.568;2022-09-09T05:02:11;14.80;99.90
39815;DHT22;25495;45.948;4.568;2022-09-09T05:04:37;14.80;99.90
39815;DHT22;25495;45.948;4.568;2022-09-09T05:07:03;14.80;99.90
39815;DHT22;25495;45.948;4.568;2022-09-09T05:09:29;14.80;99.90
39815;DHT22;25495;45.948;4.568;2022-09-09T05:11:55;14.80;99.90
39815;DHT22;25495;45.948;4.568;2022-09-09T05:14:21;14.80;99.90
39815;DHT22;25495;45.948;4.568;2022-09-09T05:16:48;14.90;99.90
39815;DHT22;25495;45.948;4.568;2022-09-09T05:19:15;14.90;99.90
39815;DHT22;25495;45.948;4.568;2022-09-09T05:21:41;14.80;99.90
39815;DHT22;25495;45.948;4.568;2022-09-09T05:24:09;14.70;99.90
39815;DHT22;25495;45.948;4.568;2022-09-09T05:26:36;14.70;99.90
39815;DHT22;25495;45.948;4.568;2022-09-09T05:29:02;14.80;99.90
39815;DHT22;25495;45.948;4.568;2022-09-09T05:31:30;14.90;99.90
39815;DHT22;25495;45.948;4.568;2022-09-09T05:33:56;14.90;99.90
39815;DHT22;25495;45.948;4.568;2022-09-09T05:36:22;14.90;99.90
39815;DHT22;25495;45.948;4.568;2022-09-09T05:38:49;14.90;99.90
39815;DHT22;25495;45.948;4.568;2022-09-09T05:41:16;14.80;99.90
39815;DHT22;25495;45.948;4.568;2022-09-09T05:43:43;14.70;99.90
39815;DHT22;25495;45.948;4.568;2022-09-09T05:46:12;14.70;99.90
39815;DHT22;25495;45.948;4.568;2022-09-09T05:48:41;14.70;99.90
39815;DHT22;25495;45.948;4.568;2022-09-09T05:51:12;14.70;99.90
39815;DHT22;25495;45.948;4.568;2022-09-09T05:53:38;14.80;99.90
39815;DHT22;25495;45.948;4.568;2022-09-09T05:56:09;14.90;99.90
39815;DHT22;25495;45.948;4.568;2022-09-09T05:58:40;15.00;99.90
39815;DHT22;25495;45.948;4.568;2022-09-09T06:01:08;15.10;99.90
39815;DHT22;25495;45.948;4.568;2022-09-09T06:03:37;15.40;99.90
39815;DHT22;25495;45.948;4.568;2022-09-09T06:06:06;15.50;99.90
39815;DHT22;25495;45.948;4.568;2022-09-09T06:08:33;15.70;99.90
39815;DHT22;25495;45.948;4.568;2022-09-09T06:11:10;15.90;99.90
39815;DHT22;25495;45.948;4.568;2022-09-09T06:13:36;16.00;99.90
39815;DHT22;25495;45.948;4.568;2022-09-09T06:16:11;16.10;99.90
39815;DHT22;25495;45.948;4.568;2022-09-09T06:18:38;16.10;99.90
39815;DHT22;25495;45.948;4.568;2022-09-09T06:21:09;16.00;99.90
39815;DHT22;25495;45.948;4.568;2022-09-09T06:23:36;16.00;99.90
39815;DHT22;25495;45.948;4.568;2022-09-09T06:26:23;16.20;99.90
39815;DHT22;25495;45.948;4.568;2022-09-09T06:28:52;16.50;99.90
39815;DHT22;25495;45.948;4.568;2022-09-09T06:31:21;16.60;99.90
39815;DHT22;25495;45.948;4.568;2022-09-09T06:33:48;17.20;99.90
39815;DHT22;25495;45.948;4.568;2022-09-09T06:36:20;17.00;99.90
39815;DHT22;25495;45.948;4.568;2022-09-09T06:38:47;16.80;99.90
39815;DHT22;25495;45.948;4.568;2022-09-09T06:41:15;17.10;99.90
39815;DHT22;25495;45.948;4.568;2022-09-09T06:43:42;17.40;99.90
39815;DHT22;25495;45.948;4.568;2022-09-09T06:46:13;17.60;99.90
39815;DHT22;25495;45.948;4.568;2022-09-09T06:48:39;17.70;99.90
39815;DHT22;25495;45.948;4.568;2022-09-09T06:51:15;18.20;99.90
39815;DHT22;25495;45.948;4.568;2022-09-09T06:53:43;18.70;99.90
39815;DHT22;25495;45.948;4.568;2022-09-09T06:58:36;18.70;99.90
39815;DHT22;25495;45.948;4.568;2022-09-09T07:01:05;19.00;99.90
39815;DHT22;25495;45.948;4.568;2022-09-09T07:03:32;19.20;99.90
39815;DHT22;25495;45.948;4.568;2022-09-09T07:05:58;19.40;99.90
39815;DHT22;25495;45.948;4.568;2022-09-09T07:08:25;19.20;99.90
39815;DHT22;25495;45.948;4.568;2022-09-09T07:10:52;18.60;99.90
39815;DHT22;25495;45.948;4.568;2022-09-09T07:13:24;18.50;99.90
39815;DHT22;25495;45.948;4.568;2022-09-09T07:15:51;18.90;99.90
39815;DHT22;25495;45.948;4.568;2022-09-09T07:18:18;19.30;99.90
39815;DHT22;25495;45.948;4.568;2022-09-09T07:20:53;19.90;99.90
39815;DHT22;25495;45.948;4.568;2022-09-09T07:23:23;19.40;99.90
39815;DHT22;25495;45.948;4.568;2022-09-09T07:28:17;20.00;99.90
39815;DHT22;25495;45.948;4.568;2022-09-09T07:30:43;20.50;99.90
39815;DHT22;25495;45.948;4.568;2022-09-09T07:33:09;20.10;99.90
39815;DHT22;25495;45.948;4.568;2022-09-09T07:35:35;19.60;99.90
39815;DHT22;25495;45.948;4.568;2022-09-09T07:38:02;19.40;99.90
39815;DHT22;25495;45.948;4.568;2022-09-09T07:40:33;19.30;99.90
39815;DHT22;25495;45.948;4.568;2022-09-09T07:42:59;18.90;99.90
39815;DHT22;25495;45.948;4.568;2022-09-09T07:45:26;19.00;99.90
39815;DHT22;25495;45.948;4.568;2022-09-09T07:47:54;19.50;99.90
39815;DHT22;25495;45.948;4.568;2022-09-09T07:50:21;19.90;99.90
39815;DHT22;25495;45.948;4.568;2022-09-09T07:52:47;20.10;99.90
39815;DHT22;25495;45.948;4.568;2022-09-09T07:55:13;19.90;99.90
39815;DHT22;25495;45.948;4.568;2022-09-09T07:57:39;20.20;99.90
39815;DHT22;25495;45.948;4.568;2022-09-09T08:00:06;20.50;99.90
39815;DHT22;25495;45.948;4.568;2022-09-09T08:02:31;20.90;99.90
39815;DHT22;25495;45.948;4.568;2022-09-09T08:04:57;21.20;99.90
39815;DHT22;25495;45.948;4.568;2022-09-09T08:07:23;21.50;99.90
39815;DHT22;25495;45.948;4.568;2022-09-09T08:09:49;21.30;99.90
39815;DHT22;25495;45.948;4.568;2022-09-09T08:12:16;21.10;99.90
39815;DHT22;25495;45.948;4.568;2022-09-09T08:14:42;20.90;99.90
39815;DHT22;25495;45.948;4.568;2022-09-09T08:17:08;20.50;99.90
39815;DHT22;25495;45.948;4.568;2022-09-09T08:19:34;20.90;99.90
39815;DHT22;25495;45.948;4.568;2022-09-09T08:22:01;20.90;99.80
39815;DHT22;25495;45.948;4.568;2022-09-09T08:24:28;21.30;99.90
39815;DHT22;25495;45.948;4.568;2022-09-09T08:26:54;21.10;98.60
39815;DHT22;25495;45.948;4.568;2022-09-09T08:29:22;20.70;99.90
39815;DHT22;25495;45.948;4.568;2022-09-09T08:31:53;20.50;99.70
39815;DHT22;25495;45.948;4.568;2022-09-09T08:34:23;21.00;99.70
39815;DHT22;25495;45.948;4.568;2022-09-09T08:36:51;21.70;99.90
39815;DHT22;25495;45.948;4.568;2022-09-09T08:39:19;21.70;98.10
39815;DHT22;25495;45.948;4.568;2022-09-09T08:45:15;21.30;98.90
39815;DHT22;25495;45.948;4.568;2022-09-09T08:47:58;21.10;98.20
39815;DHT22;25495;45.948;4.568;2022-09-09T08:55:54;20.50;99.20
39815;DHT22;25495;45.948;4.568;2022-09-09T08:58:22;19.80;97.60
39815;DHT22;25495;45.948;4.568;2022-09-09T09:06:23;20.40;97.10
39815;DHT22;25495;45.948;4.568;2022-09-09T09:09:06;20.20;96.40
39815;DHT22;25495;45.948;4.568;2022-09-09T09:11:48;20.20;96.90
39815;DHT22;25495;45.948;4.568;2022-09-09T09:14:21;19.90;96.60
39815;DHT22;25495;45.948;4.568;2022-09-09T09:16:55;20.20;96.60
39815;DHT22;25495;45.948;4.568;2022-09-09T09:19:22;20.30;96.00
39815;DHT22;25495;45.948;4.568;2022-09-09T09:22:06;20.10;96.90
39815;DHT22;25495;45.948;4.568;2022-09-09T09:24:45;20.10;96.50
39815;DHT22;25495;45.948;4.568;2022-09-09T09:27:16;20.20;96.50
39815;DHT22;25495;45.948;4.568;2022-09-09T09:29:44;20.80;96.80
39815;DHT22;25495;45.948;4.568;2022-09-09T09:32:16;20.30;95.50
39815;DHT22;25495;45.948;4.568;2022-09-09T09:34:49;20.00;95.60
39815;DHT22;25495;45.948;4.568;2022-09-09T09:37:28;19.90;96.00
39815;DHT22;25495;45.948;4.568;2022-09-09T09:39:54;20.00;97.40
39815;DHT22;25495;45.948;4.568;2022-09-09T09:42:20;20.00;97.00
39815;DHT22;25495;45.948;4.568;2022-09-09T09:44:46;19.60;95.30
39815;DHT22;25495;45.948;4.568;2022-09-09T09:47:18;20.10;97.00
39815;DHT22;25495;45.948;4.568;2022-09-09T09:49:55;21.20;96.80
39815;DHT22;25495;45.948;4.568;2022-09-09T09:52:30;21.30;96.60
39815;DHT22;25495;45.948;4.568;2022-09-09T09:54:57;22.00;95.60
39815;DHT22;25495;45.948;4.568;2022-09-09T09:57:29;21.80;93.20
39815;DHT22;25495;45.948;4.568;2022-09-09T10:00:14;21.80;93.50
39815;DHT22;25495;45.948;4.568;2022-09-09T10:02:42;21.50;93.80
39815;DHT22;25495;45.948;4.568;2022-09-09T10:07:41;22.40;94.00
39815;DHT22;25495;45.948;4.568;2022-09-09T10:10:23;21.80;92.80
39815;DHT22;25495;45.948;4.568;2022-09-09T10:13:06;22.10;93.30
39815;DHT22;25495;45.948;4.568;2022-09-09T10:15:37;22.40;93.10
39815;DHT22;25495;45.948;4.568;2022-09-09T10:27:11;22.40;91.00
39815;DHT22;25495;45.948;4.568;2022-09-09T10:46:33;22.50;88.60
39815;DHT22;25495;45.948;4.568;2022-09-09T10:54:15;22.00;91.00
39815;DHT22;25495;45.948;4.568;2022-09-09T10:56:44;21.60;90.30
39815;DHT22;25495;45.948;4.568;2022-09-09T10:59:22;21.80;92.00
39815;DHT22;25495;45.948;4.568;2022-09-09T11:02:15;21.70;91.60
39815;DHT22;25495;45.948;4.568;2022-09-09T11:10:03;21.80;91.40
39815;DHT22;25495;45.948;4.568;2022-09-09T11:12:34;21.70;91.50
39815;DHT22;25495;45.948;4.568;2022-09-09T11:15:08;21.60;90.00
39815;DHT22;25495;45.948;4.568;2022-09-09T11:18:01;21.40;89.30
39815;DHT22;25495;45.948;4.568;2022-09-09T11:20:28;21.70;91.40
39815;DHT22;25495;45.948;4.568;2022-09-09T11:23:02;21.90;90.20
39815;DHT22;25495;45.948;4.568;2022-09-09T11:25:37;21.80;90.50
39815;DHT22;25495;45.948;4.568;2022-09-09T11:44:40;22.20;90.90
39815;DHT22;25495;45.948;4.568;2022-09-09T11:47:20;21.90;90.90
39815;DHT22;25495;45.948;4.568;2022-09-09T11:49:49;21.80;90.70
39815;DHT22;25495;45.948;4.568;2022-09-09T11:52:35;22.50;91.10
39815;DHT22;25495;45.948;4.568;2022-09-09T11:55:25;23.10;91.60
39815;DHT22;25495;45.948;4.568;2022-09-09T12:00:39;22.70;89.20
39815;DHT22;25495;45.948;4.568;2022-09-09T12:03:46;22.70;91.30
39815;DHT22;25495;45.948;4.568;2022-09-09T12:08:55;22.60;89.40
39815;DHT22;25495;45.948;4.568;2022-09-09T12:11:28;22.40;89.50
39815;DHT22;25495;45.948;4.568;2022-09-09T12:14:03;22.10;87.90
39815;DHT22;25495;45.948;4.568;2022-09-09T12:16:34;21.90;88.70
39815;DHT22;25495;45.948;4.568;2022-09-09T12:19:17;21.80;90.60
39815;DHT22;25495;45.948;4.568;2022-09-09T12:21:54;21.90;90.90
39815;DHT22;25495;45.948;4.568;2022-09-09T12:24:33;22.10;90.70
39815;DHT22;25495;45.948;4.568;2022-09-09T12:30:11;21.90;91.00
39815;DHT22;25495;45.948;4.568;2022-09-09T12:32:37;21.80;90.50
39815;DHT22;25495;45.948;4.568;2022-09-09T12:42:49;21.50;91.50
39815;DHT22;25495;45.948;4.568;2022-09-09T12:45:27;21.60;91.60
39815;DHT22;25495;45.948;4.568;2022-09-09T12:48:00;21.70;92.10
39815;DHT22;25495;45.948;4.568;2022-09-09T12:50:36;21.30;91.50
39815;DHT22;25495;45.948;4.568;2022-09-09T12:55:57;21.50;93.40
39815;DHT22;25495;45.948;4.568;2022-09-09T12:58:24;22.00;91.70
39815;DHT22;25495;45.948;4.568;2022-09-09T13:00:53;22.30;93.20
39815;DHT22;25495;45.948;4.568;2022-09-09T13:03:21;22.50;92.80
39815;DHT22;25495;45.948;4.568;2022-09-09T13:05:48;22.70;91.30
39815;DHT22;25495;45.948;4.568;2022-09-09T13:08:15;22.60;91.10
39815;DHT22;25495;45.948;4.568;2022-09-09T13:10:47;22.20;91.00
39815;DHT22;25495;45.948;4.568;2022-09-09T13:13:29;22.00;91.30
39815;DHT22;25495;45.948;4.568;2022-09-09T13:16:00;22.90;92.60
39815;DHT22;25495;45.948;4.568;2022-09-09T13:18:30;22.90;91.20
39815;DHT22;25495;45.948;4.568;2022-09-09T13:20:57;22.70;90.60
39815;DHT22;25495;45.948;4.568;2022-09-09T13:23:33;23.30;90.90
39815;DHT22;25495;45.948;4.568;2022-09-09T13:26:06;23.40;91.80
39815;DHT22;25495;45.948;4.568;2022-09-09T13:28:44;23.20;91.50
39815;DHT22;25495;45.948;4.568;2022-09-09T13:31:21;23.40;90.20
39815;DHT22;25495;45.948;4.568;2022-09-09T13:33:48;23.30;90.00
39815;DHT22;25495;45.948;4.568;2022-09-09T13:36:14;23.30;90.80
39815;DHT22;25495;45.948;4.568;2022-09-09T13:41:26;23.20;91.50
39815;DHT22;25495;45.948;4.568;2022-09-09T13:43:54;23.60;90.30
39815;DHT22;25495;45.948;4.568;2022-09-09T13:46:40;23.40;88.10
39815;DHT22;25495;45.948;4.568;2022-09-09T13:51:40;23.40;88.80
39815;DHT22;25495;45.948;4.568;2022-09-09T13:54:11;23.10;86.40
39815;DHT22;25495;45.948;4.568;2022-09-09T13:56:38;23.30;88.70
39815;DHT22;25495;45.948;4.568;2022-09-09T13:59:09;23.40;88.60
39815;DHT22;25495;45.948;4.568;2022-09-09T14:01:36;23.40;87.00
39815;DHT22;25495;45.948;4.568;2022-09-09T14:04:03;23.20;85.60
39815;DHT22;25495;45.948;4.568;2022-09-09T14:06:32;23.20;86.60
39815;DHT22;25495;45.948;4.568;2022-09-09T14:09:00;23.30;89.20
39815;DHT22;25495;45.948;4.568;2022-09-09T14:11:26;23.30;87.70
39815;DHT22;25495;45.948;4.568;2022-09-09T14:13:52;23.40;88.00
39815;DHT22;25495;45.948;4.568;2022-09-09T14:16:18;23.30;88.40
39815;DHT22;25495;45.948;4.568;2022-09-09T14:18:45;23.50;88.40
39815;DHT22;25495;45.948;4.568;2022-09-09T14:21:11;23.30;87.80
39815;DHT22;25495;45.948;4.568;2022-09-09T14:23:38;23.00;87.70
39815;DHT22;25495;45.948;4.568;2022-09-09T14:26:08;22.70;88.50
39815;DHT22;25495;45.948;4.568;2022-09-09T14:28:35;22.60;86.30
39815;DHT22;25495;45.948;4.568;2022-09-09T14:31:01;22.20;86.20
39815;DHT22;25495;45.948;4.568;2022-09-09T14:33:28;22.20;89.90
39815;DHT22;25495;45.948;4.568;2022-09-09T14:35:58;22.20;88.70
39815;DHT22;25495;45.948;4.568;2022-09-09T14:38:25;22.30;88.70
39815;DHT22;25495;45.948;4.568;2022-09-09T14:40:54;22.20;88.90
39815;DHT22;25495;45.948;4.568;2022-09-09T14:43:19;22.30;90.00
39815;DHT22;25495;45.948;4.568;2022-09-09T14:45:46;22.40;90.10
39815;DHT22;25495;45.948;4.568;2022-09-09T14:48:17;22.20;90.00
39815;DHT22;25495;45.948;4.568;2022-09-09T14:50:43;22.20;90.40
39815;DHT22;25495;45.948;4.568;2022-09-09T14:53:09;22.30;89.20
39815;DHT22;25495;45.948;4.568;2022-09-09T14:55:36;22.30;88.90
39815;DHT22;25495;45.948;4.568;2022-09-09T14:58:02;22.40;89.10
39815;DHT22;25495;45.948;4.568;2022-09-09T15:00:28;22.70;89.90
39815;DHT22;25495;45.948;4.568;2022-09-09T15:02:55;22.90;90.40
39815;DHT22;25495;45.948;4.568;2022-09-09T15:05:21;22.60;89.10
39815;DHT22;25495;45.948;4.568;2022-09-09T15:07:47;22.60;90.40
39815;DHT22;25495;45.948;4.568;2022-09-09T15:10:16;22.70;89.60
39815;DHT22;25495;45.948;4.568;2022-09-09T15:12:43;22.70;89.70
39815;DHT22;25495;45.948;4.568;2022-09-09T15:15:09;22.70;88.90
39815;DHT22;25495;45.948;4.568;2022-09-09T15:17:35;22.60;89.70
39815;DHT22;25495;45.948;4.568;2022-09-09T15:20:03;22.50;89.90
39815;DHT22;25495;45.948;4.568;2022-09-09T15:22:31;22.60;89.30
39815;DHT22;25495;45.948;4.568;2022-09-09T15:24:57;22.60;88.10
39815;DHT22;25495;45.948;4.568;2022-09-09T15:27:23;22.50;88.00
39815;DHT22;25495;45.948;4.568;2022-09-09T15:29:49;22.30;87.80
39815;DHT22;25495;45.948;4.568;2022-09-09T15:32:17;22.00;87.80
39815;DHT22;25495;45.948;4.568;2022-09-09T15:34:43;21.90;88.40
39815;DHT22;25495;45.948;4.568;2022-09-09T15:37:12;21.90;88.50
39815;DHT22;25495;45.948;4.568;2022-09-09T15:39:39;21.80;88.70
39815;DHT22;25495;45.948;4.568;2022-09-09T15:42:06;21.90;89.40
39815;DHT22;25495;45.948;4.568;2022-09-09T15:44:42;21.80;89.20
39815;DHT22;25495;45.948;4.568;2022-09-09T15:47:10;21.60;89.40
39815;DHT22;25495;45.948;4.568;2022-09-09T15:49:38;21.60;90.10
39815;DHT22;25495;45.948;4.568;2022-09-09T15:52:04;21.40;88.80
39815;DHT22;25495;45.948;4.568;2022-09-09T15:54:36;21.20;88.50
39815;DHT22;25495;45.948;4.568;2022-09-09T15:57:07;21.10;89.50
39815;DHT22;25495;45.948;4.568;2022-09-09T15:59:34;21.10;90.40
39815;DHT22;25495;45.948;4.568;2022-09-09T16:02:00;21.10;90.10
39815;DHT22;25495;45.948;4.568;2022-09-09T16:04:28;21.20;90.10
39815;DHT22;25495;45.948;4.568;2022-09-09T16:07:03;21.30;90.10
39815;DHT22;25495;45.948;4.568;2022-09-09T16:09:30;21.40;90.40
39815;DHT22;25495;45.948;4.568;2022-09-09T16:11:58;21.50;89.40
39815;DHT22;25495;45.948;4.568;2022-09-09T16:14:24;21.30;90.10
39815;DHT22;25495;45.948;4.568;2022-09-09T16:16:51;21.20;90.10
39815;DHT22;25495;45.948;4.568;2022-09-09T16:19:16;21.20;90.00
39815;DHT22;25495;45.948;4.568;2022-09-09T16:21:47;21.20;89.80
39815;DHT22;25495;45.948;4.568;2022-09-09T16:24:15;21.10;90.20
39815;DHT22;25495;45.948;4.568;2022-09-09T16:26:44;20.90;90.40
39815;DHT22;25495;45.948;4.568;2022-09-09T16:29:12;20.90;90.60
39815;DHT22;25495;45.948;4.568;2022-09-09T16:31:38;21.00;91.20
39815;DHT22;25495;45.948;4.568;2022-09-09T16:34:06;21.00;91.30
39815;DHT22;25495;45.948;4.568;2022-09-09T16:36:34;21.00;91.10
39815;DHT22;25495;45.948;4.568;2022-09-09T16:39:06;20.90;90.90
39815;DHT22;25495;45.948;4.568;2022-09-09T16:41:33;21.00;91.20
39815;DHT22;25495;45.948;4.568;2022-09-09T16:44:04;21.00;91.60
39815;DHT22;25495;45.948;4.568;2022-09-09T16:46:33;21.10;91.40
39815;DHT22;25495;45.948;4.568;2022-09-09T16:49:01;20.90;91.20
39815;DHT22;25495;45.948;4.568;2022-09-09T16:51:30;21.00;92.00
39815;DHT22;25495;45.948;4.568;2022-09-09T16:53:59;20.90;91.70
39815;DHT22;25495;45.948;4.568;2022-09-09T16:56:29;20.90;91.50
39815;DHT22;25495;45.948;4.568;2022-09-09T16:59:00;20.80;91.40
39815;DHT22;25495;45.948;4.568;2022-09-09T17:01:30;20.80;91.40
39815;DHT22;25495;45.948;4.568;2022-09-09T17:04:02;20.80;91.90
39815;DHT22;25495;45.948;4.568;2022-09-09T17:06:29;20.70;91.90
39815;DHT22;25495;45.948;4.568;2022-09-09T17:08:57;20.70;92.40
39815;DHT22;25495;45.948;4.568;2022-09-09T17:11:25;20.70;92.10
39815;DHT22;25495;45.948;4.568;2022-09-09T17:13:52;20.60;92.10
39815;DHT22;25495;45.948;4.568;2022-09-09T17:16:22;20.50;92.60
39815;DHT22;25495;45.948;4.568;2022-09-09T17:18:50;20.20;93.70
39815;DHT22;25495;45.948;4.568;2022-09-09T17:21:19;20.00;94.40
39815;DHT22;25495;45.948;4.568;2022-09-09T17:23:45;19.80;96.50
39815;DHT22;25495;45.948;4.568;2022-09-09T17:26:14;19.30;97.90
39815;DHT22;25495;45.948;4.568;2022-09-09T17:28:42;18.90;99.50
39815;DHT22;25495;45.948;4.568;2022-09-09T17:31:10;18.60;99.90
39815;DHT22;25495;45.948;4.568;2022-09-09T17:33:38;18.50;99.90
39815;DHT22;25495;45.948;4.568;2022-09-09T17:36:10;18.50;99.90
39815;DHT22;25495;45.948;4.568;2022-09-09T17:38:37;18.40;99.90
39815;DHT22;25495;45.948;4.568;2022-09-09T17:41:25;18.30;99.90
39815;DHT22;25495;45.948;4.568;2022-09-09T17:43:53;18.30;99.90
39815;DHT22;25495;45.948;4.568;2022-09-09T17:46:34;17.90;99.90
39815;DHT22;25495;45.948;4.568;2022-09-09T17:49:03;17.80;99.90
39815;DHT22;25495;45.948;4.568;2022-09-09T17:51:31;17.70;99.90
39815;DHT22;25495;45.948;4.568;2022-09-09T17:53:59;17.60;99.90
39815;DHT22;25495;45.948;4.568;2022-09-09T17:56:28;17.70;99.90
39815;DHT22;25495;45.948;4.568;2022-09-09T17:58:58;17.50;99.90
39815;DHT22;25495;45.948;4.568;2022-09-09T18:01:27;17.40;99.90
39815;DHT22;25495;45.948;4.568;2022-09-09T18:03:54;17.30;99.90
39815;DHT22;25495;45.948;4.568;2022-09-09T18:06:25;17.40;99.90
39815;DHT22;25495;45.948;4.568;2022-09-09T18:08:59;17.50;99.90
39815;DHT22;25495;45.948;4.568;2022-09-09T18:11:29;17.50;99.90